sensor_id;sensor_type;location;lat;lon;timestamp;pressure;altitude;pressure_sealevel;temperature;humidity
50484;BME280;36409;52.168;20.878;2023-07-31T00:01:12;99853.19;;;17.52;66.24
50484;BME280;36409;52.168;20.878;2023-07-31T00:03:45;99855.04;;;17.50;66.14
50484;BME280;36409;52.168;20.878;2023-07-31T00:06:15;99854.44;;;17.44;66.59
50484;BME280;36409;52.168;20.878;2023-07-31T00:08:44;99858.99;;;17.41;66.37
50484;BME280;36409;52.168;20.878;2023-07-31T00:11:13;99862.65;;;17.38;66.46
50484;BME280;36409;52.168;20.878;2023-07-31T00:13:43;99857.47;;;17.37;66.71
50484;BME280;36409;52.168;20.878;2023-07-31T00:16:12;99871.58;;;17.36;66.66
50484;BME280;36409;52.168;20.878;2023-07-31T00:18:43;99867.32;;;17.33;66.89
50484;BME280;36409;52.168;20.878;2023-07-31T00:21:21;99867.47;;;17.30;66.97
50484;BME280;36409;52.168;20.878;2023-07-31T00:23:50;99869.23;;;17.29;66.83
50484;BME280;36409;52.168;20.878;2023-07-31T00:26:19;99864.05;;;17.28;66.63
50484;BME280;36409;52.168;20.878;2023-07-31T00:28:51;99866.69;;;17.28;66.79
50484;BME280;36409;52.168;20.878;2023-07-31T00:31:20;99851.78;;;17.27;66.90
50484;BME280;36409;52.168;20.878;2023-07-31T00:33:50;99850.08;;;17.26;67.15
50484;BME280;36409;52.168;20.878;2023-07-31T00:36:19;99847.53;;;17.24;66.77
50484;BME280;36409;52.168;20.878;2023-07-31T00:38:53;99845.03;;;17.21;66.87
50484;BME280;36409;52.168;20.878;2023-07-31T00:41:22;99843.41;;;17.19;66.86
50484;BME280;36409;52.168;20.878;2023-07-31T00:43:55;99842.72;;;17.15;66.99
50484;BME280;36409;52.168;20.878;2023-07-31T00:46:28;99843.70;;;17.12;66.75
50484;BME280;36409;52.168;20.878;2023-07-31T00:49:06;99841.25;;;17.09;67.24
50484;BME280;36409;52.168;20.878;2023-07-31T00:51:41;99843.16;;;17.06;67.31
50484;BME280;36409;52.168;20.878;2023-07-31T00:54:15;99850.31;;;17.04;66.86
50484;BME280;36409;52.168;20.878;2023-07-31T00:56:48;99845.18;;;17.01;67.38
50484;BME280;36409;52.168;20.878;2023-07-31T00:59:19;99851.47;;;16.98;67.50
50484;BME280;36409;52.168;20.878;2023-07-31T01:01:49;99855.03;;;16.97;67.23
50484;BME280;36409;52.168;20.878;2023-07-31T01:04:24;99857.86;;;16.92;67.07
50484;BME280;36409;52.168;20.878;2023-07-31T01:06:58;99850.23;;;16.86;67.47
50484;BME280;36409;52.168;20.878;2023-07-31T01:09:37;99860.08;;;16.82;67.15
50484;BME280;36409;52.168;20.878;2023-07-31T01:12:12;99859.38;;;16.79;67.24
50484;BME280;36409;52.168;20.878;2023-07-31T01:14:51;99856.87;;;16.76;67.64
50484;BME280;36409;52.168;20.878;2023-07-31T01:17:21;99855.39;;;16.70;67.67
50484;BME280;36409;52.168;20.878;2023-07-31T01:19:54;99859.03;;;16.67;67.52
50484;BME280;36409;52.168;20.878;2023-07-31T01:22:38;99851.22;;;16.66;67.88
50484;BME280;36409;52.168;20.878;2023-07-31T01:25:19;99850.43;;;16.64;67.80
50484;BME280;36409;52.168;20.878;2023-07-31T01:28:02;99854.04;;;16.61;67.76
50484;BME280;36409;52.168;20.878;2023-07-31T01:30:40;99855.84;;;16.61;68.13
50484;BME280;36409;52.168;20.878;2023-07-31T01:33:11;99856.84;;;16.58;67.71
50484;BME280;36409;52.168;20.878;2023-07-31T01:35:43;99858.69;;;16.56;67.96
50484;BME280;36409;52.168;20.878;2023-07-31T01:38:12;99856.14;;;16.55;67.86
50484;BME280;36409;52.168;20.878;2023-07-31T01:40:43;99853.56;;;16.53;68.01
50484;BME280;36409;52.168;20.878;2023-07-31T01:43:12;99858.83;;;16.53;67.99
50484;BME280;36409;52.168;20.878;2023-07-31T01:45:42;99861.55;;;16.51;68.31
50484;BME280;36409;52.168;20.878;2023-07-31T01:48:11;99863.30;;;16.51;68.19
50484;BME280;36409;52.168;20.878;2023-07-31T01:50:44;99860.75;;;16.49;68.27
50484;BME280;36409;52.168;20.878;2023-07-31T01:53:14;99872.30;;;16.47;68.50
50484;BME280;36409;52.168;20.878;2023-07-31T01:55:44;99868.95;;;16.43;68.42
50484;BME280;36409;52.168;20.878;2023-07-31T01:58:13;99868.09;;;16.43;68.72
50484;BME280;36409;52.168;20.878;2023-07-31T02:00:53;99869.09;;;16.40;68.39
50484;BME280;36409;52.168;20.878;2023-07-31T02:03:23;99862.11;;;16.39;68.96
50484;BME280;36409;52.168;20.878;2023-07-31T02:05:54;99867.46;;;16.38;68.65
50484;BME280;36409;52.168;20.878;2023-07-31T02:08:27;99865.75;;;16.36;68.69
50484;BME280;36409;52.168;20.878;2023-07-31T02:10:59;99864.09;;;16.34;68.74
50484;BME280;36409;52.168;20.878;2023-07-31T02:13:36;99864.25;;;16.31;69.20
50484;BME280;36409;52.168;20.878;2023-07-31T02:16:08;99877.42;;;16.31;69.21
50484;BME280;36409;52.168;20.878;2023-07-31T02:18:50;99876.50;;;16.32;69.09
50484;BME280;36409;52.168;20.878;2023-07-31T02:21:22;99883.53;;;16.31;68.97
50484;BME280;36409;52.168;20.878;2023-07-31T02:23:53;99887.03;;;16.32;69.12
50484;BME280;36409;52.168;20.878;2023-07-31T02:26:22;99889.66;;;16.32;69.42
50484;BME280;36409;52.168;20.878;2023-07-31T02:28:51;99887.08;;;16.30;69.40
50484;BME280;36409;52.168;20.878;2023-07-31T02:31:22;99889.80;;;16.29;69.21
50484;BME280;36409;52.168;20.878;2023-07-31T02:33:52;99890.59;;;16.31;69.75
50484;BME280;36409;52.168;20.878;2023-07-31T02:36:21;99892.30;;;16.32;69.41
50484;BME280;36409;52.168;20.878;2023-07-31T02:38:52;99897.48;;;16.33;69.59
50484;BME280;36409;52.168;20.878;2023-07-31T02:41:22;99896.48;;;16.36;70.11
50484;BME280;36409;52.168;20.878;2023-07-31T02:43:51;99898.11;;;16.39;69.60
50484;BME280;36409;52.168;20.878;2023-07-31T02:46:21;99897.14;;;16.41;70.00
50484;BME280;36409;52.168;20.878;2023-07-31T02:48:52;99883.80;;;16.44;70.00
50484;BME280;36409;52.168;20.878;2023-07-31T02:51:22;99877.61;;;16.45;69.92
50484;BME280;36409;52.168;20.878;2023-07-31T02:53:51;99876.64;;;16.48;70.08
50484;BME280;36409;52.168;20.878;2023-07-31T02:56:20;99883.54;;;16.50;70.24
50484;BME280;36409;52.168;20.878;2023-07-31T02:58:55;99886.96;;;16.52;70.03
50484;BME280;36409;52.168;20.878;2023-07-31T03:01:24;99889.43;;;16.56;70.06
50484;BME280;36409;52.168;20.878;2023-07-31T03:03:53;99883.19;;;16.58;70.02
50484;BME280;36409;52.168;20.878;2023-07-31T03:06:24;99886.61;;;16.60;70.11
50484;BME280;36409;52.168;20.878;2023-07-31T03:09:03;99888.23;;;16.63;70.17
50484;BME280;36409;52.168;20.878;2023-07-31T03:11:34;99882.05;;;16.64;69.99
50484;BME280;36409;52.168;20.878;2023-07-31T03:14:06;99893.37;;;16.66;70.37
50484;BME280;36409;52.168;20.878;2023-07-31T03:16:35;99890.66;;;16.67;70.37
50484;BME280;36409;52.168;20.878;2023-07-31T03:19:06;99887.93;;;16.69;70.29
50484;BME280;36409;52.168;20.878;2023-07-31T03:21:35;99894.86;;;16.72;70.26
50484;BME280;36409;52.168;20.878;2023-07-31T03:24:05;99903.52;;;16.74;70.05
50484;BME280;36409;52.168;20.878;2023-07-31T03:26:34;99905.18;;;16.76;69.98
50484;BME280;36409;52.168;20.878;2023-07-31T03:29:04;99903.30;;;16.78;70.15
50484;BME280;36409;52.168;20.878;2023-07-31T03:31:33;99906.72;;;16.80;70.43
50484;BME280;36409;52.168;20.878;2023-07-31T03:34:06;99912.70;;;16.84;70.29
50484;BME280;36409;52.168;20.878;2023-07-31T03:36:35;99907.38;;;16.86;70.74
50484;BME280;36409;52.168;20.878;2023-07-31T03:39:04;99915.14;;;16.89;70.30
50484;BME280;36409;52.168;20.878;2023-07-31T03:41:33;99917.69;;;16.90;70.93
50484;BME280;36409;52.168;20.878;2023-07-31T03:44:02;99917.55;;;16.93;70.53
50484;BME280;36409;52.168;20.878;2023-07-31T03:46:33;99921.06;;;16.94;70.33
50484;BME280;36409;52.168;20.878;2023-07-31T03:49:03;99928.05;;;16.95;70.49
50484;BME280;36409;52.168;20.878;2023-07-31T03:51:35;99930.68;;;16.95;70.31
50484;BME280;36409;52.168;20.878;2023-07-31T03:54:05;99926.20;;;16.97;70.60
50484;BME280;36409;52.168;20.878;2023-07-31T03:56:36;99926.11;;;16.98;70.27
50484;BME280;36409;52.168;20.878;2023-07-31T03:59:07;99926.98;;;16.99;70.19
50484;BME280;36409;52.168;20.878;2023-07-31T04:01:42;99932.09;;;17.02;70.31
50484;BME280;36409;52.168;20.878;2023-07-31T04:04:11;99929.39;;;17.04;70.27
50484;BME280;36409;52.168;20.878;2023-07-31T04:06:40;99933.66;;;17.06;70.50
50484;BME280;36409;52.168;20.878;2023-07-31T04:09:09;99938.80;;;17.09;70.46
50484;BME280;36409;52.168;20.878;2023-07-31T04:11:38;99940.50;;;17.10;70.38
50484;BME280;36409;52.168;20.878;2023-07-31T04:14:07;99938.63;;;17.12;70.46
50484;BME280;36409;52.168;20.878;2023-07-31T04:16:36;99947.31;;;17.14;70.29
50484;BME280;36409;52.168;20.878;2023-07-31T04:19:06;99946.48;;;17.14;70.35
50484;BME280;36409;52.168;20.878;2023-07-31T04:21:35;99943.75;;;17.16;70.39
50484;BME280;36409;52.168;20.878;2023-07-31T04:24:06;99949.03;;;17.16;70.49
50484;BME280;36409;52.168;20.878;2023-07-31T04:26:36;99948.10;;;17.17;70.32
50484;BME280;36409;52.168;20.878;2023-07-31T04:29:08;99956.80;;;17.19;70.31
50484;BME280;36409;52.168;20.878;2023-07-31T04:31:37;99949.67;;;17.21;70.34
50484;BME280;36409;52.168;20.878;2023-07-31T04:34:10;99952.23;;;17.22;70.34
50484;BME280;36409;52.168;20.878;2023-07-31T04:36:41;99948.58;;;17.25;70.26
50484;BME280;36409;52.168;20.878;2023-07-31T04:39:12;99949.36;;;17.27;70.29
50484;BME280;36409;52.168;20.878;2023-07-31T04:41:44;99956.34;;;17.28;69.98
50484;BME280;36409;52.168;20.878;2023-07-31T04:44:15;99950.15;;;17.29;70.23
50484;BME280;36409;52.168;20.878;2023-07-31T04:46:44;99953.57;;;17.31;69.80
50484;BME280;36409;52.168;20.878;2023-07-31T04:49:13;99960.38;;;17.35;70.16
50484;BME280;36409;52.168;20.878;2023-07-31T04:51:44;99957.69;;;17.37;70.00
50484;BME280;36409;52.168;20.878;2023-07-31T04:54:15;99956.67;;;17.39;69.87
50484;BME280;36409;52.168;20.878;2023-07-31T04:56:44;99954.83;;;17.41;70.02
50484;BME280;36409;52.168;20.878;2023-07-31T04:59:14;99947.70;;;17.43;70.26
50484;BME280;36409;52.168;20.878;2023-07-31T05:01:43;99955.44;;;17.47;70.24
50484;BME280;36409;52.168;20.878;2023-07-31T05:04:14;99956.91;;;17.52;69.83
50484;BME280;36409;52.168;20.878;2023-07-31T05:06:43;99959.32;;;17.57;69.80
50484;BME280;36409;52.168;20.878;2023-07-31T05:09:18;99966.16;;;17.61;69.82
50484;BME280;36409;52.168;20.878;2023-07-31T05:11:47;99963.37;;;17.64;69.81
50484;BME280;36409;52.168;20.878;2023-07-31T05:14:16;99964.16;;;17.66;69.78
50484;BME280;36409;52.168;20.878;2023-07-31T05:16:45;99963.15;;;17.69;69.47
50484;BME280;36409;52.168;20.878;2023-07-31T05:19:14;99964.86;;;17.70;69.58
50484;BME280;36409;52.168;20.878;2023-07-31T05:21:43;99973.47;;;17.73;69.58
50484;BME280;36409;52.168;20.878;2023-07-31T05:24:12;99970.50;;;17.80;69.52
50484;BME280;36409;52.168;20.878;2023-07-31T05:26:41;99969.43;;;17.84;69.61
50484;BME280;36409;52.168;20.878;2023-07-31T05:29:13;99976.19;;;17.89;69.65
50484;BME280;36409;52.168;20.878;2023-07-31T05:31:42;99976.88;;;17.93;69.48
50484;BME280;36409;52.168;20.878;2023-07-31T05:34:11;99978.58;;;17.94;69.29
50484;BME280;36409;52.168;20.878;2023-07-31T05:36:40;99981.17;;;17.96;69.59
50484;BME280;36409;52.168;20.878;2023-07-31T05:39:09;99986.45;;;17.96;69.52
50484;BME280;36409;52.168;20.878;2023-07-31T05:41:38;99987.44;;;17.93;69.16
50484;BME280;36409;52.168;20.878;2023-07-31T05:44:07;99986.50;;;17.94;69.51
50484;BME280;36409;52.168;20.878;2023-07-31T05:46:36;99985.52;;;17.97;69.32
50484;BME280;36409;52.168;20.878;2023-07-31T05:49:07;99989.03;;;17.97;69.21
50484;BME280;36409;52.168;20.878;2023-07-31T05:51:36;99992.45;;;17.99;69.23
50484;BME280;36409;52.168;20.878;2023-07-31T05:54:07;99996.62;;;18.03;69.19
50484;BME280;36409;52.168;20.878;2023-07-31T05:56:38;100000.83;;;18.08;68.85
50484;BME280;36409;52.168;20.878;2023-07-31T05:59:09;100011.23;;;18.11;69.09
50484;BME280;36409;52.168;20.878;2023-07-31T06:01:38;100010.07;;;18.16;69.60
50484;BME280;36409;52.168;20.878;2023-07-31T06:04:07;100003.77;;;18.19;69.32
50484;BME280;36409;52.168;20.878;2023-07-31T06:06:36;100012.47;;;18.21;69.18
50484;BME280;36409;52.168;20.878;2023-07-31T06:09:06;100021.09;;;18.25;69.05
50484;BME280;36409;52.168;20.878;2023-07-31T06:11:35;100021.86;;;18.27;69.03
50484;BME280;36409;52.168;20.878;2023-07-31T06:14:04;100015.71;;;18.26;69.00
50484;BME280;36409;52.168;20.878;2023-07-31T06:16:33;100012.38;;;18.23;68.84
50484;BME280;36409;52.168;20.878;2023-07-31T06:19:02;100014.09;;;18.24;68.90
50484;BME280;36409;52.168;20.878;2023-07-31T06:21:31;100012.47;;;18.21;69.04
50484;BME280;36409;52.168;20.878;2023-07-31T06:24:01;100017.99;;;18.16;68.99
50484;BME280;36409;52.168;20.878;2023-07-31T06:26:30;100018.05;;;18.15;68.95
50484;BME280;36409;52.168;20.878;2023-07-31T06:29:02;100018.23;;;18.12;69.25
50484;BME280;36409;52.168;20.878;2023-07-31T06:31:34;100019.16;;;18.11;68.97
50484;BME280;36409;52.168;20.878;2023-07-31T06:34:03;100019.31;;;18.08;68.90
50484;BME280;36409;52.168;20.878;2023-07-31T06:36:33;100012.31;;;18.06;68.94
50484;BME280;36409;52.168;20.878;2023-07-31T06:39:02;100013.94;;;18.09;69.39
50484;BME280;36409;52.168;20.878;2023-07-31T06:41:33;100018.23;;;18.12;69.00
50484;BME280;36409;52.168;20.878;2023-07-31T06:44:03;100022.49;;;18.14;68.93
50484;BME280;36409;52.168;20.878;2023-07-31T06:46:34;100019.91;;;18.13;69.29
50484;BME280;36409;52.168;20.878;2023-07-31T06:49:03;100031.25;;;18.15;68.76
50484;BME280;36409;52.168;20.878;2023-07-31T06:51:35;100025.97;;;18.15;69.16
50484;BME280;36409;52.168;20.878;2023-07-31T06:54:07;100022.34;;;18.17;69.18
50484;BME280;36409;52.168;20.878;2023-07-31T06:56:37;100020.45;;;18.19;69.21
50484;BME280;36409;52.168;20.878;2023-07-31T06:59:09;100029.79;;;18.27;69.24
50484;BME280;36409;52.168;20.878;2023-07-31T07:01:38;100019.82;;;18.32;68.88
50484;BME280;36409;52.168;20.878;2023-07-31T07:04:07;100018.59;;;18.39;68.81
50484;BME280;36409;52.168;20.878;2023-07-31T07:06:35;100025.25;;;18.46;68.78
50484;BME280;36409;52.168;20.878;2023-07-31T07:09:05;100023.42;;;18.64;68.82
50484;BME280;36409;52.168;20.878;2023-07-31T07:11:34;100023.72;;;18.92;68.53
50484;BME280;36409;52.168;20.878;2023-07-31T07:14:03;100009.50;;;19.26;68.32
50484;BME280;36409;52.168;20.878;2023-07-31T07:16:33;100013.57;;;19.48;68.51
50484;BME280;36409;52.168;20.878;2023-07-31T07:19:02;100017.66;;;19.70;68.24
50484;BME280;36409;52.168;20.878;2023-07-31T07:21:34;100015.39;;;19.94;67.80
50484;BME280;36409;52.168;20.878;2023-07-31T07:24:04;100018.37;;;20.18;67.90
50484;BME280;36409;52.168;20.878;2023-07-31T07:26:34;100012.91;;;20.50;67.41
50484;BME280;36409;52.168;20.878;2023-07-31T07:29:03;100014.08;;;20.75;67.04
50484;BME280;36409;52.168;20.878;2023-07-31T07:31:32;100015.48;;;20.95;67.31
50484;BME280;36409;52.168;20.878;2023-07-31T07:34:02;100011.56;;;21.16;66.39
50484;BME280;36409;52.168;20.878;2023-07-31T07:36:31;100005.81;;;21.36;66.87
50484;BME280;36409;52.168;20.878;2023-07-31T07:39:01;100004.14;;;21.48;65.79
50484;BME280;36409;52.168;20.878;2023-07-31T07:41:30;100002.42;;;21.62;65.60
50484;BME280;36409;52.168;20.878;2023-07-31T07:44:00;100005.91;;;21.62;65.50
50484;BME280;36409;52.168;20.878;2023-07-31T07:46:29;100008.38;;;21.65;65.51
50484;BME280;36409;52.168;20.878;2023-07-31T07:48:58;100006.47;;;21.67;65.14
50484;BME280;36409;52.168;20.878;2023-07-31T07:51:27;100015.84;;;21.73;64.63
50484;BME280;36409;52.168;20.878;2023-07-31T07:54:00;100007.16;;;21.84;64.62
50484;BME280;36409;52.168;20.878;2023-07-31T07:56:29;100006.30;;;21.96;64.47
50484;BME280;36409;52.168;20.878;2023-07-31T07:59:00;100007.81;;;22.13;64.36
50484;BME280;36409;52.168;20.878;2023-07-31T08:01:29;100012.92;;;22.29;64.38
50484;BME280;36409;52.168;20.878;2023-07-31T08:04:00;100009.13;;;22.46;63.78
50484;BME280;36409;52.168;20.878;2023-07-31T08:06:29;100015.92;;;22.63;63.35
50484;BME280;36409;52.168;20.878;2023-07-31T08:09:01;100007.73;;;22.66;63.21
50484;BME280;36409;52.168;20.878;2023-07-31T08:11:34;99999.13;;;22.63;62.90
50484;BME280;36409;52.168;20.878;2023-07-31T08:14:04;100005.61;;;22.72;62.70
50484;BME280;36409;52.168;20.878;2023-07-31T08:16:35;100001.66;;;22.77;62.79
50484;BME280;36409;52.168;20.878;2023-07-31T08:19:04;100006.86;;;22.79;62.69
50484;BME280;36409;52.168;20.878;2023-07-31T08:21:35;100006.98;;;22.77;61.83
50484;BME280;36409;52.168;20.878;2023-07-31T08:24:04;99997.92;;;22.80;62.02
50484;BME280;36409;52.168;20.878;2023-07-31T08:26:35;100002.70;;;22.88;61.82
50484;BME280;36409;52.168;20.878;2023-07-31T08:29:04;100000.21;;;22.97;61.87
50484;BME280;36409;52.168;20.878;2023-07-31T08:31:34;100004.98;;;23.05;61.77
50484;BME280;36409;52.168;20.878;2023-07-31T08:34:03;100004.56;;;23.11;61.14
50484;BME280;36409;52.168;20.878;2023-07-31T08:36:33;100000.60;;;23.17;60.95
50484;BME280;36409;52.168;20.878;2023-07-31T08:39:02;100004.53;;;23.24;60.58
50484;BME280;36409;52.168;20.878;2023-07-31T08:41:32;99995.13;;;23.32;60.69
50484;BME280;36409;52.168;20.878;2023-07-31T08:44:06;99998.19;;;23.38;60.11
50484;BME280;36409;52.168;20.878;2023-07-31T08:46:35;99995.83;;;23.47;59.81
50484;BME280;36409;52.168;20.878;2023-07-31T08:49:04;99995.97;;;23.56;60.03
50484;BME280;36409;52.168;20.878;2023-07-31T08:51:36;99998.19;;;23.63;59.46
50484;BME280;36409;52.168;20.878;2023-07-31T08:54:04;100003.27;;;23.66;59.07
50484;BME280;36409;52.168;20.878;2023-07-31T08:56:34;99995.57;;;23.74;59.02
50484;BME280;36409;52.168;20.878;2023-07-31T08:59:05;99992.69;;;23.88;58.67
50484;BME280;36409;52.168;20.878;2023-07-31T09:01:37;99995.05;;;24.04;58.24
50484;BME280;36409;52.168;20.878;2023-07-31T09:04:13;99997.05;;;24.25;58.42
50484;BME280;36409;52.168;20.878;2023-07-31T09:06:43;99997.17;;;24.58;57.95
50484;BME280;36409;52.168;20.878;2023-07-31T09:09:13;100002.76;;;24.89;57.64
50484;BME280;36409;52.168;20.878;2023-07-31T09:11:43;99998.59;;;25.19;57.37
50484;BME280;36409;52.168;20.878;2023-07-31T09:14:14;99998.03;;;25.48;56.84
50484;BME280;36409;52.168;20.878;2023-07-31T09:16:53;100002.11;;;25.84;56.68
50484;BME280;36409;52.168;20.878;2023-07-31T09:19:27;99998.84;;;26.13;55.85
50484;BME280;36409;52.168;20.878;2023-07-31T09:21:57;100000.00;;;26.51;55.77
50484;BME280;36409;52.168;20.878;2023-07-31T09:24:27;99995.31;;;26.75;55.19
50484;BME280;36409;52.168;20.878;2023-07-31T09:26:57;99999.34;;;26.90;54.87
50484;BME280;36409;52.168;20.878;2023-07-31T09:29:28;99992.72;;;26.94;54.43
50484;BME280;36409;52.168;20.878;2023-07-31T09:31:59;99993.20;;;27.19;54.53
50484;BME280;36409;52.168;20.878;2023-07-31T09:34:38;99989.77;;;26.97;54.23
50484;BME280;36409;52.168;20.878;2023-07-31T09:37:07;99989.80;;;27.07;53.79
50484;BME280;36409;52.168;20.878;2023-07-31T09:39:47;99993.47;;;27.06;53.44
50484;BME280;36409;52.168;20.878;2023-07-31T09:42:25;99990.91;;;27.05;52.61
50484;BME280;36409;52.168;20.878;2023-07-31T09:45:08;99995.75;;;27.31;52.80
50484;BME280;36409;52.168;20.878;2023-07-31T09:47:37;99998.03;;;27.55;52.63
50484;BME280;36409;52.168;20.878;2023-07-31T09:50:10;99991.97;;;27.63;52.26
50484;BME280;36409;52.168;20.878;2023-07-31T09:52:43;99988.16;;;27.85;51.70
50484;BME280;36409;52.168;20.878;2023-07-31T09:55:13;99984.20;;;28.09;50.81
50484;BME280;36409;52.168;20.878;2023-07-31T09:57:44;99993.48;;;28.04;50.86
50484;BME280;36409;52.168;20.878;2023-07-31T10:00:16;99985.03;;;28.09;50.25
50484;BME280;36409;52.168;20.878;2023-07-31T10:02:46;99984.06;;;27.90;49.70
50484;BME280;36409;52.168;20.878;2023-07-31T10:05:16;99982.06;;;28.12;49.61
50484;BME280;36409;52.168;20.878;2023-07-31T10:07:53;99982.96;;;28.41;49.53
50484;BME280;36409;52.168;20.878;2023-07-31T10:10:23;99988.39;;;28.59;49.17
50484;BME280;36409;52.168;20.878;2023-07-31T10:12:53;99981.72;;;28.73;48.80
50484;BME280;36409;52.168;20.878;2023-07-31T10:15:22;99982.66;;;28.81;48.07
50484;BME280;36409;52.168;20.878;2023-07-31T10:17:52;99976.97;;;28.85;47.72
50484;BME280;36409;52.168;20.878;2023-07-31T10:20:24;99980.60;;;28.93;47.64
50484;BME280;36409;52.168;20.878;2023-07-31T10:22:54;99978.88;;;29.20;47.78
50484;BME280;36409;52.168;20.878;2023-07-31T10:25:24;99974.11;;;29.32;46.92
50484;BME280;36409;52.168;20.878;2023-07-31T10:27:55;99977.66;;;29.33;46.43
50484;BME280;36409;52.168;20.878;2023-07-31T10:30:29;99971.89;;;29.27;46.04
50484;BME280;36409;52.168;20.878;2023-07-31T10:33:00;99966.61;;;29.54;45.59
50484;BME280;36409;52.168;20.878;2023-07-31T10:35:31;99969.27;;;29.72;45.66
50484;BME280;36409;52.168;20.878;2023-07-31T10:38:11;99975.92;;;29.86;44.89
50484;BME280;36409;52.168;20.878;2023-07-31T10:40:40;99981.95;;;29.80;44.47
50484;BME280;36409;52.168;20.878;2023-07-31T10:43:09;99973.83;;;29.71;44.62
50484;BME280;36409;52.168;20.878;2023-07-31T10:45:52;99971.38;;;29.60;44.05
50484;BME280;36409;52.168;20.878;2023-07-31T10:48:22;99973.75;;;29.45;43.50
50484;BME280;36409;52.168;20.878;2023-07-31T10:50:54;99977.89;;;29.21;43.26
50484;BME280;36409;52.168;20.878;2023-07-31T10:53:25;99980.34;;;29.15;43.43
50484;BME280;36409;52.168;20.878;2023-07-31T10:55:58;99970.48;;;29.05;42.82
50484;BME280;36409;52.168;20.878;2023-07-31T10:58:28;99974.00;;;28.88;42.88
50484;BME280;36409;52.168;20.878;2023-07-31T11:00:58;99977.34;;;28.72;42.98
50484;BME280;36409;52.168;20.878;2023-07-31T11:03:40;99973.28;;;28.58;42.25
50484;BME280;36409;52.168;20.878;2023-07-31T11:06:12;99968.59;;;28.60;42.86
50484;BME280;36409;52.168;20.878;2023-07-31T11:08:46;99968.59;;;28.60;42.82
50484;BME280;36409;52.168;20.878;2023-07-31T11:11:17;99969.83;;;28.75;42.53
50484;BME280;36409;52.168;20.878;2023-07-31T11:13:48;99970.27;;;28.99;42.72
50484;BME280;36409;52.168;20.878;2023-07-31T11:16:19;99972.35;;;29.23;42.34
50484;BME280;36409;52.168;20.878;2023-07-31T11:18:49;99964.46;;;29.39;42.20
50484;BME280;36409;52.168;20.878;2023-07-31T11:21:21;99962.94;;;29.37;42.03
50484;BME280;36409;52.168;20.878;2023-07-31T11:23:52;99967.55;;;29.45;41.80
50484;BME280;36409;52.168;20.878;2023-07-31T11:26:24;99957.48;;;29.47;41.98
50484;BME280;36409;52.168;20.878;2023-07-31T11:28:53;99975.38;;;29.38;41.76
50484;BME280;36409;52.168;20.878;2023-07-31T11:31:22;99963.23;;;29.16;41.31
50484;BME280;36409;52.168;20.878;2023-07-31T11:33:51;99956.14;;;28.96;41.34
50484;BME280;36409;52.168;20.878;2023-07-31T11:36:35;99964.99;;;28.79;41.57
50484;BME280;36409;52.168;20.878;2023-07-31T11:39:07;99960.66;;;28.68;41.46
50484;BME280;36409;52.168;20.878;2023-07-31T11:41:36;99964.44;;;28.47;41.37
50484;BME280;36409;52.168;20.878;2023-07-31T11:44:08;99967.88;;;28.30;41.46
50484;BME280;36409;52.168;20.878;2023-07-31T11:46:57;99960.73;;;28.11;41.59
50484;BME280;36409;52.168;20.878;2023-07-31T11:49:26;99961.04;;;27.88;41.30
50484;BME280;36409;52.168;20.878;2023-07-31T11:51:55;99966.28;;;27.70;41.46
50484;BME280;36409;52.168;20.878;2023-07-31T11:54:25;99964.19;;;27.64;41.51
50484;BME280;36409;52.168;20.878;2023-07-31T11:56:53;99956.30;;;27.52;41.88
50484;BME280;36409;52.168;20.878;2023-07-31T11:59:22;99952.61;;;27.34;41.75
50484;BME280;36409;52.168;20.878;2023-07-31T12:01:52;99952.31;;;27.17;41.71
50484;BME280;36409;52.168;20.878;2023-07-31T12:04:22;99960.47;;;27.06;41.87
50484;BME280;36409;52.168;20.878;2023-07-31T12:06:53;99946.38;;;26.94;42.02
50484;BME280;36409;52.168;20.878;2023-07-31T12:09:26;99958.33;;;26.90;42.10
50484;BME280;36409;52.168;20.878;2023-07-31T12:11:55;99952.56;;;26.85;42.43
50484;BME280;36409;52.168;20.878;2023-07-31T12:14:26;99953.13;;;26.88;42.47
50484;BME280;36409;52.168;20.878;2023-07-31T12:16:58;99952.56;;;26.94;42.55
50484;BME280;36409;52.168;20.878;2023-07-31T12:19:29;99955.53;;;27.01;42.68
50484;BME280;36409;52.168;20.878;2023-07-31T12:22:00;99952.30;;;26.97;42.63
50484;BME280;36409;52.168;20.878;2023-07-31T12:24:29;99950.00;;;26.83;42.44
50484;BME280;36409;52.168;20.878;2023-07-31T12:26:58;99947.41;;;26.72;42.46
50484;BME280;36409;52.168;20.878;2023-07-31T12:29:35;99947.39;;;26.62;42.44
50484;BME280;36409;52.168;20.878;2023-07-31T12:32:19;99941.33;;;26.60;42.55
50484;BME280;36409;52.168;20.878;2023-07-31T12:34:49;99941.73;;;26.55;42.49
50484;BME280;36409;52.168;20.878;2023-07-31T12:37:18;99941.13;;;26.42;42.15
50484;BME280;36409;52.168;20.878;2023-07-31T12:39:47;99941.30;;;26.19;42.31
50484;BME280;36409;52.168;20.878;2023-07-31T12:42:17;99928.97;;;26.06;42.38
50484;BME280;36409;52.168;20.878;2023-07-31T12:44:46;99928.58;;;25.90;42.21
50484;BME280;36409;52.168;20.878;2023-07-31T12:47:15;99925.15;;;25.78;42.43
50484;BME280;36409;52.168;20.878;2023-07-31T12:49:44;99922.88;;;25.73;42.41
50484;BME280;36409;52.168;20.878;2023-07-31T12:52:13;99921.89;;;25.74;42.53
50484;BME280;36409;52.168;20.878;2023-07-31T12:54:42;99916.55;;;25.74;42.20
50484;BME280;36409;52.168;20.878;2023-07-31T12:57:10;99914.60;;;25.77;42.57
50484;BME280;36409;52.168;20.878;2023-07-31T12:59:39;99911.20;;;25.74;42.12
50484;BME280;36409;52.168;20.878;2023-07-31T13:02:08;99913.09;;;25.84;42.56
50484;BME280;36409;52.168;20.878;2023-07-31T13:04:37;99912.61;;;26.00;42.45
50484;BME280;36409;52.168;20.878;2023-07-31T13:07:06;99905.62;;;26.09;42.09